Time;durP1;ratioP1;P1;durP2;ratioP2;P2;SDS_P1;SDS_P2;PMS_P1;PMS_P2;Temp;Humidity;BMP_temperature;BMP_pressure;BME280_temperature;BME280_humidity;BME280_pressure;Samples;Min_cycle;Max_cycle;Signal;HPM_P1;HPM_P2
2021/10/03 00:00:45;;;;;;;2.72;0.90;;;;;;;13.39;55.02;99521.56;5070803;28;20413;-67
2021/10/03 00:03:15;;;;;;;2.72;1.27;;;;;;;12.84;56.29;99542.09;5072577;28;20402;-67
2021/10/03 00:05:41;;;;;;;2.45;0.95;;;;;;;13.23;55.73;99530.56;5070048;28;20033;-67
2021/10/03 00:08:07;;;;;;;2.45;1.17;;;;;;;13.25;55.79;99530.41;5074196;28;20035;-67
2021/10/03 00:10:33;;;;;;;4.20;1.40;;;;;;;13.42;55.30;99530.03;5071760;28;20092;-69
2021/10/03 00:13:05;;;;;;;2.03;0.90;;;;;;;13.27;55.97;99526.75;5070788;28;20428;-68
2021/10/03 00:15:33;;;;;;;4.63;1.75;;;;;;;13.24;55.78;99513.03;5073515;28;21176;-68
2021/10/03 00:17:59;;;;;;;3.33;1.40;;;;;;;13.67;54.91;99512.50;5069983;28;20086;-69
2021/10/03 00:20:25;;;;;;;3.33;1.30;;;;;;;13.18;56.94;99511.66;5070084;28;20024;-68
2021/10/03 00:22:51;;;;;;;2.55;1.77;;;;;;;13.18;57.66;99509.03;5071554;28;20498;-68
2021/10/03 00:25:17;;;;;;;4.30;1.45;;;;;;;12.92;58.49;99510.94;5076760;28;20020;-69
2021/10/03 00:27:44;;;;;;;4.25;1.52;;;;;;;13.32;57.24;99502.81;5075627;28;20094;-69
2021/10/03 00:30:11;;;;;;;2.30;1.05;;;;;;;12.84;59.03;99498.34;5078307;28;20886;-65
2021/10/03 00:32:37;;;;;;;5.85;1.13;;;;;;;12.90;58.91;99497.09;5075478;28;20032;-64
2021/10/03 00:35:03;;;;;;;2.17;1.63;;;;;;;13.03;58.54;99503.13;5075366;28;20039;-64
2021/10/03 00:37:28;;;;;;;4.47;2.08;;;;;;;12.98;58.62;99504.41;5072628;28;20362;-66
2021/10/03 00:39:54;;;;;;;5.80;1.52;;;;;;;13.17;58.35;99514.41;5076267;28;20103;-65
2021/10/03 00:42:20;;;;;;;4.30;2.10;;;;;;;13.32;57.69;99508.88;5076359;28;20044;-69
2021/10/03 00:44:45;;;;;;;5.40;1.63;;;;;;;13.07;58.23;99515.09;5074297;28;20039;-69
2021/10/03 00:47:11;;;;;;;2.47;2.10;;;;;;;13.40;57.22;99516.19;5076560;28;20050;-69
2021/10/03 00:49:37;;;;;;;4.53;1.98;;;;;;;13.67;56.29;99523.00;5083936;28;20027;-70
2021/10/03 00:52:06;;;;;;;2.15;1.25;;;;;;;13.72;56.12;99519.09;5074348;28;20055;-70
2021/10/03 00:54:32;;;;;;;1.90;1.17;;;;;;;13.80;55.80;99508.00;5072863;28;20089;-66
2021/10/03 00:56:59;;;;;;;7.93;1.60;;;;;;;13.78;56.05;99507.28;5075527;28;20031;-65
2021/10/03 00:59:24;;;;;;;3.13;1.88;;;;;;;13.59;56.81;99512.25;5075037;28;20111;-65
2021/10/03 01:01:50;;;;;;;2.28;1.25;;;;;;;13.56;56.83;99505.38;5077379;28;20127;-67
2021/10/03 01:04:15;;;;;;;3.15;1.30;;;;;;;13.61;56.60;99502.47;5073310;28;20388;-65
2021/10/03 01:06:41;;;;;;;3.95;1.42;;;;;;;13.85;55.74;99495.38;5073535;28;20115;-66
2021/10/03 01:09:08;;;;;;;2.15;1.25;;;;;;;13.65;56.48;99503.91;5075346;28;20032;-66
2021/10/03 01:11:33;;;;;;;2.13;1.17;;;;;;;13.79;55.93;99508.97;5077869;28;20140;-68
2021/10/03 01:13:59;;;;;;;2.25;1.20;;;;;;;13.76;56.16;99509.19;5074364;28;20496;-68
2021/10/03 01:16:24;;;;;;;1.80;0.98;;;;;;;14.05;55.12;99488.59;5075809;28;20555;-65
2021/10/03 01:18:50;;;;;;;3.28;1.20;;;;;;;13.88;55.55;99492.50;5078000;28;20032;-64
2021/10/03 01:21:16;;;;;;;2.55;1.30;;;;;;;14.05;55.26;99495.63;5073020;28;20036;-65
2021/10/03 01:23:42;;;;;;;2.05;1.02;;;;;;;14.01;55.37;99475.81;5081996;28;20378;-65
2021/10/03 01:26:08;;;;;;;1.63;0.63;;;;;;;13.96;55.64;99485.84;5091663;28;20025;-65
2021/10/03 01:28:33;;;;;;;1.40;0.82;;;;;;;14.08;55.01;99469.97;5096472;28;20024;-64
2021/10/03 01:30:59;;;;;;;6.85;2.00;;;;;;;14.34;54.63;99477.63;5094152;28;20424;-65
2021/10/03 01:33:27;;;;;;;1.77;0.90;;;;;;;14.26;55.05;99483.47;5090922;28;20146;-66
2021/10/03 01:35:52;;;;;;;4.50;1.23;;;;;;;14.47;54.77;99480.16;5091688;28;20092;-66
2021/10/03 01:38:19;;;;;;;3.08;0.88;;;;;;;14.60;54.57;99478.25;5095595;28;20036;-67
2021/10/03 01:40:45;;;;;;;2.05;0.85;;;;;;;;;;5094810;28;20074;-68
2021/10/03 01:43:13;;;;;;;4.18;1.08;;;;;;;14.71;54.08;99501.06;5094293;28;20070;-69
2021/10/03 01:45:39;;;;;;;5.93;0.98;;;;;;;14.90;53.60;99488.13;5093461;28;20057;-69
2021/10/03 01:48:16;;;;;;;5.32;0.77;;;;;;;15.02;53.40;99502.06;5091924;28;20054;-68
2021/10/03 01:50:51;;;;;;;2.47;0.93;;;;;;;14.44;55.01;99512.78;5092232;28;20343;-69
2021/10/03 01:53:28;;;;;;;2.97;0.65;;;;;;;14.24;55.85;99501.16;5087410;28;20036;-68
2021/10/03 01:55:55;;;;;;;2.35;1.13;;;;;;;14.33;55.72;99505.69;5074173;28;20106;-71
2021/10/03 01:58:24;;;;;;;3.55;0.95;;;;;;;14.72;54.73;99506.22;5075244;28;20032;-68
2021/10/03 02:00:54;;;;;;;3.22;0.82;;;;;;;14.20;56.57;99504.13;5074434;28;20085;-68
2021/10/03 02:03:19;;;;;;;1.67;1.00;;;;;;;14.56;55.46;99506.56;5082200;28;20044;-68
2021/10/03 02:05:46;;;;;;;1.92;0.73;;;;;;;14.44;56.20;99506.69;5072494;28;20046;-68
2021/10/03 02:08:13;;;;;;;1.92;0.98;;;;;;;14.64;55.58;99507.75;5075892;28;20124;-68
2021/10/03 02:10:41;;;;;;;1.98;1.27;;;;;;;14.32;56.54;99501.41;5072551;28;20036;-69
2021/10/03 02:13:08;;;;;;;1.17;0.38;;;;;;;14.31;56.85;99497.09;5082142;28;20267;-69
2021/10/03 02:15:35;;;;;;;6.03;0.75;;;;;;;14.02;58.32;99501.13;5071486;28;20028;-69
2021/10/03 02:18:08;;;;;;;2.60;0.88;;;;;;;14.22;57.76;99503.06;5077689;28;20039;-68
2021/10/03 02:20:34;;;;;;;1.65;0.73;;;;;;;14.35;57.32;99501.16;5072694;28;20032;-65
2021/10/03 02:23:01;;;;;;;3.20;0.90;;;;;;;14.19;58.15;99495.44;5073913;28;20512;-63
2021/10/03 02:25:26;;;;;;;1.80;0.90;;;;;;;14.05;58.58;99506.16;5079173;28;20435;-67
2021/10/03 02:27:52;;;;;;;4.68;1.08;;;;;;;14.34;57.97;99496.88;5074743;28;20028;-67
2021/10/03 02:30:17;;;;;;;3.00;0.93;;;;;;;14.06;58.69;99489.44;5086862;28;20134;-68
2021/10/03 02:32:43;;;;;;;1.80;0.88;;;;;;;14.31;58.33;99512.88;5102134;28;20055;-66
2021/10/03 02:35:11;;;;;;;2.13;0.70;;;;;;;14.40;58.10;99510.47;5093124;28;20046;-66
2021/10/03 02:37:37;;;;;;;3.20;1.02;;;;;;;14.05;59.07;99500.88;5094189;28;20035;-64
2021/10/03 02:40:06;;;;;;;2.13;1.15;;;;;;;14.35;58.46;99503.78;5091690;28;20024;-68
2021/10/03 02:42:32;;;;;;;1.63;1.05;;;;;;;14.07;59.36;99501.59;5092444;28;20096;-66
2021/10/03 02:44:57;;;;;;;2.35;1.05;;;;;;;13.94;59.85;99488.56;5097531;28;20035;-67
2021/10/03 02:47:23;;;;;;;1.73;0.82;;;;;;;14.16;59.32;99490.38;5094475;28;20028;-66
2021/10/03 02:49:48;;;;;;;1.88;1.25;;;;;;;14.21;59.11;99485.63;5090252;28;20055;-71
2021/10/03 02:52:14;;;;;;;3.97;1.63;;;;;;;14.19;59.01;99481.44;5077209;28;20024;-66
2021/10/03 02:54:41;;;;;;;1.20;0.70;;;;;;;14.48;57.85;99480.06;5079416;28;20047;-66
2021/10/03 02:57:07;;;;;;;1.83;0.90;;;;;;;14.03;59.60;99484.41;5076626;28;20028;-65
2021/10/03 02:59:33;;;;;;;2.38;1.17;;;;;;;13.94;60.28;99484.19;5074150;28;20041;-66
2021/10/03 03:01:59;;;;;;;2.47;1.00;;;;;;;14.13;59.65;99488.00;5076271;28;20058;-67
2021/10/03 03:04:25;;;;;;;1.98;1.10;;;;;;;14.15;59.72;99496.63;5076796;28;20042;-69
2021/10/03 03:06:51;;;;;;;2.22;1.30;;;;;;;14.11;59.74;99496.00;5074906;28;20028;-67
2021/10/03 03:09:16;;;;;;;5.38;1.25;;;;;;;13.89;60.68;99490.72;5076380;28;20024;-70
2021/10/03 03:11:42;;;;;;;2.33;1.42;;;;;;;13.92;60.21;99485.25;5074741;28;20031;-67
2021/10/03 03:14:09;;;;;;;3.13;1.20;;;;;;;13.91;60.71;99494.91;5074399;28;20036;-68
2021/10/03 03:16:45;;;;;;;1.73;1.10;;;;;;;14.30;59.45;99490.19;5075607;28;20421;-67
2021/10/03 03:19:11;;;;;;;1.90;0.75;;;;;;;14.44;58.87;99485.66;5077516;28;20084;-66
2021/10/03 03:21:37;;;;;;;3.00;1.58;;;;;;;14.66;58.19;99483.00;5076694;28;20042;-67
2021/10/03 03:24:04;;;;;;;1.80;1.02;;;;;;;14.42;59.22;99472.63;5073170;28;20028;-67
2021/10/03 03:26:30;;;;;;;3.60;2.05;;;;;;;14.58;58.46;99477.53;5074346;28;20420;-68
2021/10/03 03:28:55;;;;;;;3.22;1.10;;;;;;;14.49;58.72;99473.00;5072722;28;20036;-67
2021/10/03 03:31:21;;;;;;;1.77;1.15;;;;;;;14.05;59.96;99477.25;5073571;28;20123;-68
2021/10/03 03:33:46;;;;;;;1.50;0.98;;;;;;;14.43;58.76;99476.09;5072809;28;20189;-66
2021/10/03 03:36:12;;;;;;;2.15;1.10;;;;;;;14.40;58.76;99477.13;5076814;28;20035;-67
2021/10/03 03:38:37;;;;;;;5.18;0.93;;;;;;;14.20;59.45;99476.06;5073177;28;20028;-67
2021/10/03 03:41:05;;;;;;;3.25;1.02;;;;;;;14.56;58.37;99471.53;5076148;28;20028;-65
2021/10/03 03:43:30;;;;;;;1.77;1.13;;;;;;;14.39;59.24;99475.47;5071487;28;20035;-66
2021/10/03 03:45:56;;;;;;;1.98;1.20;;;;;;;14.28;59.81;99470.22;5075341;28;20040;-65
2021/10/03 03:48:21;;;;;;;2.72;1.30;;;;;;;14.11;60.64;99467.09;5074315;28;20020;-66
2021/10/03 03:50:47;;;;;;;2.15;1.30;;;;;;;14.29;59.67;99461.38;5072695;28;20028;-65
2021/10/03 03:53:12;;;;;;;2.88;1.40;;;;;;;14.42;59.62;99466.56;5074283;28;20470;-65
2021/10/03 03:55:38;;;;;;;3.03;1.48;;;;;;;14.04;60.59;99457.19;5074326;28;20036;-65
2021/10/03 03:58:03;;;;;;;1.42;0.80;;;;;;;14.05;60.95;99461.47;5074982;28;20045;-65
2021/10/03 04:00:29;;;;;;;1.55;0.80;;;;;;;14.18;60.33;99462.22;5071543;28;20067;-66
2021/10/03 04:02:54;;;;;;;1.60;0.73;;;;;;;14.50;59.70;99456.25;5077238;28;20116;-65
2021/10/03 04:05:20;;;;;;;1.42;0.82;;;;;;;14.22;60.25;99461.03;5076619;28;20031;-66
2021/10/03 04:07:45;;;;;;;2.88;1.15;;;;;;;14.25;60.50;99458.13;5078424;28;20028;-66
2021/10/03 04:10:11;;;;;;;1.50;0.80;;;;;;;14.26;60.41;99462.47;5076699;28;20020;-68
2021/10/03 04:12:36;;;;;;;2.78;1.05;;;;;;;14.27;60.22;99461.50;5075658;28;20035;-65
2021/10/03 04:15:04;;;;;;;2.88;0.60;;;;;;;14.39;60.02;99466.75;5077739;28;20066;-65
2021/10/03 04:17:30;;;;;;;1.63;0.68;;;;;;;14.32;60.45;99469.88;5075384;28;20051;-66
2021/10/03 04:19:55;;;;;;;1.15;0.60;;;;;;;14.17;60.46;99455.28;5077912;28;20017;-66
2021/10/03 04:22:21;;;;;;;1.27;0.52;;;;;;;13.99;61.15;99448.84;5077886;28;20042;-66
2021/10/03 04:24:46;;;;;;;2.65;0.60;;;;;;;14.46;59.88;99462.72;5074538;28;20028;-69
2021/10/03 04:27:12;;;;;;;1.88;0.85;;;;;;;14.36;59.71;99446.78;5073161;28;20031;-67
2021/10/03 04:29:37;;;;;;;1.23;0.65;;;;;;;13.94;61.14;99431.66;5077761;28;20082;-68
2021/10/03 04:32:04;;;;;;;2.65;0.43;;;;;;;14.10;61.03;99435.72;5075482;28;20056;-67
2021/10/03 04:34:29;;;;;;;2.42;1.30;;;;;;;14.15;60.57;99433.56;5061438;28;20505;-68
2021/10/03 04:36:55;;;;;;;1.48;1.20;;;;;;;14.24;60.37;99437.25;5078243;28;20036;-65
2021/10/03 04:39:20;;;;;;;1.75;0.60;;;;;;;14.34;60.06;99441.69;5076698;28;20114;-65
2021/10/03 04:41:46;;;;;;;2.35;0.70;;;;;;;13.98;60.92;99441.91;5074030;28;20113;-66
2021/10/03 04:44:11;;;;;;;1.58;0.63;;;;;;;14.35;59.91;99430.19;5077737;28;20023;-66
2021/10/03 04:46:36;;;;;;;1.92;0.85;;;;;;;14.41;59.47;99430.69;5074301;28;20047;-68
2021/10/03 04:49:02;;;;;;;1.55;0.52;;;;;;;14.41;59.77;99426.28;5077243;28;20092;-68
2021/10/03 04:51:27;;;;;;;2.72;0.63;;;;;;;14.17;59.94;99436.91;5077595;28;20044;-68
2021/10/03 04:53:53;;;;;;;2.35;0.65;;;;;;;14.25;59.96;99423.16;5077704;28;20032;-68
2021/10/03 04:56:18;;;;;;;1.98;1.10;;;;;;;14.47;59.47;99427.59;5076091;28;20103;-69
2021/10/03 04:58:44;;;;;;;1.73;0.85;;;;;;;14.41;59.44;99428.06;5074987;28;20032;-69
2021/10/03 05:01:11;;;;;;;1.38;0.60;;;;;;;14.64;58.75;99429.72;5078594;28;20035;-70
2021/10/03 05:03:36;;;;;;;1.70;0.60;;;;;;;14.54;58.80;99429.63;5074331;28;20039;-68
2021/10/03 05:06:07;;;;;;;2.25;0.50;;;;;;;14.97;57.20;99426.16;5075929;28;20029;-68
2021/10/03 05:08:34;;;;;;;1.20;0.50;;;;;;;14.74;57.86;99428.00;5083649;28;20039;-69
2021/10/03 05:10:59;;;;;;;9.70;1.15;;;;;;;14.56;58.44;99434.72;5076087;28;20040;-69
2021/10/03 05:13:25;;;;;;;2.30;0.68;;;;;;;14.85;57.58;99415.78;5076385;28;20040;-68
2021/10/03 05:15:50;;;;;;;1.23;0.40;;;;;;;15.11;56.52;99418.94;5076626;28;20626;-66
2021/10/03 05:18:15;;;;;;;2.17;0.52;;;;;;;14.67;57.51;99415.47;5077366;28;20043;-68
2021/10/03 05:20:41;;;;;;;2.20;0.40;;;;;;;14.50;58.45;99416.81;5077580;28;20047;-65
2021/10/03 05:23:06;;;;;;;2.35;0.80;;;;;;;14.14;59.05;99424.84;5076327;28;20856;-65
2021/10/03 05:25:32;;;;;;;2.25;0.80;;;;;;;14.86;56.77;99423.56;5075567;28;20098;-66
2021/10/03 05:27:57;;;;;;;0.82;0.40;;;;;;;14.87;56.63;99414.69;5078584;28;20055;-66
2021/10/03 05:30:23;;;;;;;1.70;0.73;;;;;;;14.92;56.29;99411.69;5076771;28;20039;-67
2021/10/03 05:32:49;;;;;;;1.13;0.40;;;;;;;14.79;57.04;99411.00;5088170;28;20036;-69
2021/10/03 05:35:14;;;;;;;1.98;0.60;;;;;;;14.89;56.21;99428.56;5074242;28;20118;-68
2021/10/03 05:37:40;;;;;;;2.58;0.55;;;;;;;14.67;56.52;99418.94;5075884;28;20087;-66
2021/10/03 05:40:06;;;;;;;1.73;0.73;;;;;;;15.20;55.02;99419.97;5074672;28;20028;-65
2021/10/03 05:42:31;;;;;;;1.30;0.50;;;;;;;15.13;55.08;99411.75;5077981;28;20063;-66
2021/10/03 05:44:57;;;;;;;1.15;0.45;;;;;;;14.77;55.62;99426.94;5075584;28;20071;-65
2021/10/03 05:47:22;;;;;;;1.42;0.45;;;;;;;14.77;55.52;99421.69;5076764;28;20024;-66
2021/10/03 05:49:48;;;;;;;1.17;0.40;;;;;;;14.91;55.48;99458.22;5075184;28;20055;-66
2021/10/03 05:52:13;;;;;;;1.70;0.75;;;;;;;15.00;55.07;99459.25;5075477;28;20032;-64
2021/10/03 05:54:39;;;;;;;3.60;0.50;;;;;;;15.12;54.77;99479.31;5078900;28;20066;-65
2021/10/03 05:57:04;;;;;;;2.55;0.52;;;;;;;15.05;55.19;99472.03;5074065;28;20048;-65
2021/10/03 05:59:30;;;;;;;1.98;0.38;;;;;;;15.33;54.13;99473.31;5077483;28;20373;-67
2021/10/03 06:01:55;;;;;;;0.30;0.10;;;;;;;14.24;56.20;99500.31;5076100;28;20056;-68
2021/10/03 06:04:23;;;;;;;0.20;0.10;;;;;;;14.75;54.48;99484.09;5076218;28;20025;-67
2021/10/03 06:06:49;;;;;;;0.20;0.00;;;;;;;14.25;56.63;99486.22;5076536;28;20626;-67
2021/10/03 06:09:14;;;;;;;3.55;0.30;;;;;;;13.77;58.51;99497.75;5074803;28;20093;-64
2021/10/03 06:11:40;;;;;;;0.55;0.13;;;;;;;13.63;59.01;99508.41;5075026;28;20047;-67
2021/10/03 06:14:05;;;;;;;1.95;0.10;;;;;;;13.58;59.54;99514.03;5076313;28;20024;-68
2021/10/03 06:16:31;;;;;;;0.50;0.10;;;;;;;13.61;59.34;99520.84;5077346;28;20039;-68
2021/10/03 06:18:56;;;;;;;0.30;0.10;;;;;;;13.66;59.30;99521.34;5075589;28;20039;-68
2021/10/03 06:21:22;;;;;;;1.27;0.20;;;;;;;13.52;59.84;99515.28;5076081;28;20040;-66
2021/10/03 06:23:48;;;;;;;0.20;0.03;;;;;;;13.72;59.26;99534.03;5075449;28;20059;-66
2021/10/03 06:26:14;;;;;;;0.10;0.00;;;;;;;13.89;58.41;99533.56;5077895;28;20066;-66
2021/10/03 06:28:40;;;;;;;0.20;0.00;;;;;;;13.68;58.99;99527.31;5076722;28;20040;-67
2021/10/03 06:31:07;;;;;;;0.10;0.03;;;;;;;13.55;59.24;99532.59;5077536;28;20028;-68
2021/10/03 06:33:33;;;;;;;0.43;0.00;;;;;;;13.71;59.02;99540.22;5074647;28;20627;-67
2021/10/03 06:35:58;;;;;;;0.30;0.00;;;;;;;13.84;58.68;99538.34;5077294;28;20067;-67
2021/10/03 06:38:24;;;;;;;0.50;0.13;;;;;;;13.58;59.25;99539.44;5075788;28;20128;-66
2021/10/03 06:40:50;;;;;;;0.10;0.00;;;;;;;13.41;60.15;99545.91;5076519;28;20032;-67
2021/10/03 06:43:15;;;;;;;0.30;0.00;;;;;;;13.88;58.69;99550.28;5073438;28;20547;-67
2021/10/03 06:45:41;;;;;;;0.28;0.08;;;;;;;13.63;59.21;99560.94;5076261;28;20035;-66
2021/10/03 06:48:11;;;;;;;0.30;0.10;;;;;;;13.68;59.19;99566.69;5074337;28;20086;-67
2021/10/03 06:50:37;;;;;;;0.10;0.00;;;;;;;13.51;59.40;99567.91;5077543;28;20028;-67
2021/10/03 06:53:03;;;;;;;0.10;0.00;;;;;;;13.65;58.80;99569.53;5078062;28;20047;-67
2021/10/03 06:55:30;;;;;;;0.10;0.00;;;;;;;13.08;60.25;99574.47;5077070;28;20036;-67
2021/10/03 06:57:57;;;;;;;0.10;0.03;;;;;;;13.52;59.23;99577.47;5077693;28;20486;-66
2021/10/03 07:00:22;;;;;;;0.57;0.10;;;;;;;13.66;58.74;99581.72;5073784;28;20455;-67
2021/10/03 07:02:48;;;;;;;0.30;0.00;;;;;;;13.58;58.61;99574.41;5077818;28;20127;-66
2021/10/03 07:05:13;;;;;;;0.45;0.10;;;;;;;13.90;58.16;99579.91;5073071;28;20080;-67
2021/10/03 07:07:39;;;;;;;0.10;0.00;;;;;;;13.79;57.95;99581.66;5072862;28;20491;-67
2021/10/03 07:10:05;;;;;;;0.38;0.10;;;;;;;13.52;58.54;99594.03;5076189;28;20104;-67
2021/10/03 07:12:32;;;;;;;0.65;0.00;;;;;;;13.12;59.99;99585.59;5077649;28;20119;-66
2021/10/03 07:14:57;;;;;;;0.10;0.08;;;;;;;13.29;59.70;99592.22;5076197;28;20036;-65
2021/10/03 07:17:23;;;;;;;0.85;0.10;;;;;;;13.68;58.37;99599.03;5073632;28;20065;-66
2021/10/03 07:19:48;;;;;;;0.05;0.00;;;;;;;13.37;59.62;99595.16;5074362;28;20138;-66
2021/10/03 07:22:13;;;;;;;0.15;0.00;;;;;;;13.68;58.51;99608.72;5075650;28;20435;-66
2021/10/03 07:24:39;;;;;;;0.10;0.00;;;;;;;13.72;58.55;99604.91;5074338;28;20040;-66
2021/10/03 07:27:06;;;;;;;0.05;0.00;;;;;;;13.92;57.72;99611.31;5078228;28;22421;-67
2021/10/03 07:29:32;;;;;;;1.88;0.47;;;;;;;13.80;58.38;99605.16;5072709;28;20050;-67
2021/10/03 07:31:58;;;;;;;0.38;0.00;;;;;;;13.95;57.72;99605.84;5074503;28;20047;-67
2021/10/03 07:34:23;;;;;;;0.50;0.10;;;;;;;13.62;58.75;99624.91;5073899;28;20028;-67
2021/10/03 07:36:48;;;;;;;0.63;0.10;;;;;;;13.66;58.72;99626.38;5076530;28;20186;-66
2021/10/03 07:39:14;;;;;;;0.47;0.10;;;;;;;13.64;58.80;99623.00;5075497;28;20023;-66
2021/10/03 07:41:39;;;;;;;0.30;0.10;;;;;;;13.98;57.89;99625.78;5077472;28;20207;-66
2021/10/03 07:44:05;;;;;;;0.50;0.10;;;;;;;13.47;59.54;99632.91;5078487;28;20032;-65
2021/10/03 07:46:30;;;;;;;0.35;0.10;;;;;;;13.90;58.03;99624.56;5077392;28;20439;-70
2021/10/03 07:48:56;;;;;;;0.45;0.10;;;;;;;13.89;58.15;99627.28;5079108;28;20086;-68
2021/10/03 07:51:21;;;;;;;0.38;0.00;;;;;;;13.85;58.36;99638.97;5078679;28;20078;-66
2021/10/03 07:53:47;;;;;;;1.33;0.00;;;;;;;13.78;58.57;99633.31;5078782;28;20134;-66
2021/10/03 07:56:12;;;;;;;0.22;0.03;;;;;;;14.08;57.73;99638.13;5076580;28;20051;-66
2021/10/03 07:58:38;;;;;;;1.98;0.20;;;;;;;14.17;57.52;99646.28;5077857;28;20039;-68
2021/10/03 08:01:03;;;;;;;0.77;0.10;;;;;;;14.04;58.05;99643.72;5074748;28;20107;-69
2021/10/03 08:03:29;;;;;;;0.40;0.10;;;;;;;14.19;57.52;99633.84;5075685;28;20044;-67
2021/10/03 08:05:54;;;;;;;0.40;0.20;;;;;;;14.24;57.17;99645.69;5077915;28;20103;-66
2021/10/03 08:08:21;;;;;;;0.85;0.35;;;;;;;14.22;57.41;99644.97;5080987;28;20032;-65
2021/10/03 08:10:47;;;;;;;0.35;0.00;;;;;;;14.29;57.16;99640.91;5075902;28;20035;-67
2021/10/03 08:13:13;;;;;;;1.38;0.60;;;;;;;14.14;57.51;99642.06;5078620;28;20211;-66
2021/10/03 08:15:41;;;;;;;0.60;0.10;;;;;;;14.15;57.62;99633.25;5078386;28;20031;-66
2021/10/03 08:18:07;;;;;;;0.57;0.10;;;;;;;14.21;57.16;99648.56;5073278;28;20107;-66
2021/10/03 08:20:33;;;;;;;2.13;0.10;;;;;;;13.99;57.87;99637.97;5079092;28;20086;-66
2021/10/03 08:23:00;;;;;;;2.03;0.17;;;;;;;14.29;57.12;99640.09;5076270;28;20072;-66
2021/10/03 08:25:25;;;;;;;0.20;0.10;;;;;;;14.36;57.21;99641.28;5076354;28;20024;-66
2021/10/03 08:27:51;;;;;;;0.38;0.10;;;;;;;14.29;57.08;99634.84;5073747;28;20400;-66
2021/10/03 08:30:16;;;;;;;0.65;0.10;;;;;;;14.30;57.23;99636.50;5076552;28;20039;-68
2021/10/03 08:32:43;;;;;;;0.63;0.10;;;;;;;14.33;57.27;99631.84;5074582;28;20101;-67
2021/10/03 08:35:09;;;;;;;0.63;0.00;;;;;;;14.43;57.00;99632.00;5074647;28;20485;-65
2021/10/03 08:37:35;;;;;;;0.10;0.00;;;;;;;14.46;56.97;99631.81;5075105;28;20922;-66
2021/10/03 08:40:04;;;;;;;1.52;0.10;;;;;;;14.45;57.05;99634.53;5075756;28;20031;-66
2021/10/03 08:42:29;;;;;;;0.30;0.10;;;;;;;14.44;57.20;99638.13;5076145;28;20039;-66
2021/10/03 08:44:55;;;;;;;0.50;0.10;;;;;;;14.35;57.35;99637.00;5074935;28;20086;-67
2021/10/03 08:47:23;;;;;;;0.20;0.10;;;;;;;14.38;57.04;99630.69;5075597;28;20047;-67
2021/10/03 08:49:50;;;;;;;0.20;0.05;;;;;;;14.31;57.17;99618.00;5073187;28;20047;-67
2021/10/03 08:52:15;;;;;;;4.10;0.20;;;;;;;14.29;57.37;99634.84;5076081;28;20467;-66
2021/10/03 08:54:41;;;;;;;0.30;0.10;;;;;;;14.35;57.65;99644.88;5075262;28;20112;-67
2021/10/03 08:57:08;;;;;;;2.88;0.40;;;;;;;14.37;57.59;99632.47;5075672;28;20062;-66
2021/10/03 08:59:34;;;;;;;2.00;0.10;;;;;;;14.42;57.25;99624.28;5075721;28;20028;-66
2021/10/03 09:02:03;;;;;;;1.38;0.20;;;;;;;14.39;57.39;99624.44;5074849;28;20047;-66
2021/10/03 09:04:34;;;;;;;1.45;0.20;;;;;;;14.34;57.26;99627.44;5070209;28;20035;-66
2021/10/03 09:07:16;;;;;;;1.33;0.15;;;;;;;14.34;57.60;99627.44;5074502;28;20036;-65
2021/10/03 09:09:49;;;;;;;;;;;;;;;14.32;57.56;99619.69;5090420;28;20032;-65
2021/10/03 09:12:22;;;;;;;4.80;0.40;;;;;;;14.23;57.71;99614.25;5071667;28;19966;-69
2021/10/03 09:14:49;;;;;;;1.17;0.50;;;;;;;14.26;58.40;99630.66;5072026;28;20025;-69
2021/10/03 09:17:17;;;;;;;2.67;0.43;;;;;;;14.44;58.13;99619.72;5077981;28;20032;-68
2021/10/03 09:20:10;;;;;;;3.88;1.45;;;;;;;14.53;58.14;99627.75;5079148;28;20489;-66
2021/10/03 09:22:52;;;;;;;2.17;1.38;;;;;;;14.36;58.52;99618.47;5073170;28;20627;-66
2021/10/03 09:25:46;;;;;;;3.88;2.05;;;;;;;14.17;59.54;99623.47;5075025;28;20480;-67
2021/10/03 09:28:22;;;;;;;10.88;4.32;;;;;;;14.48;58.58;99614.13;5069217;22;20049;-67
2021/10/03 09:30:51;;;;;;;5.82;3.67;;;;;;;14.54;58.55;99618.06;5036566;28;20070;-68
2021/10/03 09:33:16;;;;;;;6.53;3.30;;;;;;;14.56;58.84;99606.47;5039458;28;20057;-67
2021/10/03 09:35:54;;;;;;;4.95;3.35;;;;;;;14.60;58.84;99617.59;5045294;28;20129;-68
2021/10/03 09:38:20;;;;;;;7.18;3.83;;;;;;;14.50;59.30;99612.22;5047911;28;20032;-67
2021/10/03 09:40:45;;;;;;;6.05;3.80;;;;;;;14.36;59.47;99610.59;5044256;28;20052;-67
2021/10/03 09:43:12;;;;;;;5.75;3.50;;;;;;;14.46;59.46;99613.41;5061831;28;20016;-67
2021/10/03 09:45:38;;;;;;;9.15;3.58;;;;;;;14.85;58.52;99605.16;5060095;28;20115;-68
2021/10/03 09:48:06;;;;;;;5.95;3.65;;;;;;;14.66;58.98;99616.31;5062185;28;20116;-66
2021/10/03 09:50:34;;;;;;;6.50;4.15;;;;;;;14.70;58.64;99615.94;5052673;28;20052;-68
2021/10/03 09:53:00;;;;;;;7.82;4.13;;;;;;;14.42;59.35;99613.75;5054012;28;20037;-65
2021/10/03 09:55:26;;;;;;;10.13;6.32;;;;;;;14.54;59.25;99610.16;5069257;28;20040;-68
2021/10/03 09:57:54;;;;;;;8.15;4.65;;;;;;;14.77;58.52;99608.41;5071318;28;20036;-68
2021/10/03 10:00:23;;;;;;;7.57;4.65;;;;;;;14.81;58.75;99609.81;5054362;28;20032;-67
2021/10/03 10:02:49;;;;;;;5.35;3.63;;;;;;;14.90;58.34;99595.13;5067969;28;20024;-67
2021/10/03 10:05:18;;;;;;;5.75;4.28;;;;;;;14.72;58.92;99605.28;5059647;28;20036;-67
2021/10/03 10:07:45;;;;;;;6.30;4.15;;;;;;;14.29;60.23;99617.25;5059527;28;20055;-68
2021/10/03 10:10:12;;;;;;;10.63;4.93;;;;;;;14.92;58.42;99601.09;5063769;28;20032;-66
2021/10/03 10:12:53;;;;;;;9.52;4.32;;;;;;;14.64;59.47;99603.25;5062543;28;20059;-66
2021/10/03 10:15:23;;;;;;;7.68;4.32;;;;;;;14.92;58.45;99627.41;5056691;28;20104;-68
2021/10/03 10:17:50;;;;;;;7.03;4.40;;;;;;;14.40;60.20;99636.66;5060080;28;20051;-68
2021/10/03 10:20:18;;;;;;;8.75;4.85;;;;;;;14.28;60.64;99623.50;5063914;28;20028;-68
2021/10/03 10:22:59;;;;;;;9.05;5.25;;;;;;;14.82;58.91;99603.63;5055644;28;20064;-68
2021/10/03 10:25:49;;;;;;;6.13;4.38;;;;;;;14.67;59.24;99633.75;5069754;28;20033;-68
2021/10/03 10:28:19;;;;;;;8.30;5.85;;;;;;;14.77;58.64;99639.97;5053743;28;20512;-69
2021/10/03 10:31:12;;;;;;;4.47;2.58;;;;;;;14.62;57.66;99622.75;5061433;28;20039;-67
2021/10/03 10:33:50;;;;;;;4.25;2.17;;;;;;;14.58;57.83;99609.00;5057778;28;20032;-68
2021/10/03 10:36:28;;;;;;;2.50;1.40;;;;;;;14.55;57.62;99638.16;5061733;28;20116;-69
2021/10/03 10:39:09;;;;;;;5.57;2.00;;;;;;;13.92;58.94;99642.84;5060037;28;20047;-68
2021/10/03 10:41:40;;;;;;;2.78;2.13;;;;;;;14.27;58.05;99637.56;5055869;28;20314;-69
2021/10/03 10:44:24;;;;;;;;;;;;;;;14.44;57.76;99632.88;5061647;28;20025;-69
2021/10/03 10:46:51;;;;;;;3.30;2.20;;;;;;;14.42;57.89;99619.00;5070018;28;19921;-68
2021/10/03 10:49:24;;;;;;;15.35;6.85;;;;;;;14.34;57.97;99638.81;5070227;28;20070;-68
2021/10/03 10:52:18;;;;;;;7.78;4.28;;;;;;;14.30;57.97;99642.63;5065488;28;20053;-68
2021/10/03 10:54:59;;;;;;;4.03;1.42;;;;;;;14.29;57.59;99635.66;5053766;28;20055;-68
2021/10/03 10:57:29;;;;;;;2.70;1.90;;;;;;;14.26;57.83;99635.91;5061185;28;20032;-69
2021/10/03 11:00:18;;;;;;;2.60;1.48;;;;;;;14.09;57.78;99638.94;5057464;28;20033;-69
2021/10/03 11:02:50;;;;;;;1.63;1.17;;;;;;;14.08;57.82;99648.63;5070296;28;20469;-67
2021/10/03 11:05:34;;;;;;;1.20;0.75;;;;;;;14.16;57.79;99645.41;5071565;28;20422;-67
2021/10/03 11:08:16;;;;;;;1.65;0.40;;;;;;;14.16;57.36;99645.41;5069497;28;20050;-69
2021/10/03 11:10:57;;;;;;;;;;;;;;;14.03;57.18;99649.91;5069999;28;20028;-68
2021/10/03 11:13:41;;;;;;;0.88;0.30;;;;;;;13.99;57.27;99644.06;5053483;28;19966;-70
2021/10/03 11:16:22;;;;;;;2.92;0.32;;;;;;;13.91;57.45;99647.25;5063762;28;20114;-68
2021/10/03 11:18:52;;;;;;;0.50;0.20;;;;;;;13.78;57.71;99641.22;5053203;28;20032;-67
2021/10/03 11:21:24;;;;;;;0.40;0.10;;;;;;;13.74;57.67;99645.00;5071314;28;20075;-70
2021/10/03 11:23:51;;;;;;;0.50;0.10;;;;;;;13.53;57.71;99632.44;5060278;28;20047;-67
2021/10/03 11:26:18;;;;;;;0.13;0.00;;;;;;;13.17;57.09;99640.34;5052895;28;20423;-69
2021/10/03 11:28:57;;;;;;;0.77;0.10;;;;;;;12.91;57.27;99640.38;5060548;28;20024;-69
2021/10/03 11:31:47;;;;;;;1.00;0.30;;;;;;;13.04;57.12;99642.97;5057366;28;20508;-69
2021/10/03 11:34:37;;;;;;;1.77;0.30;;;;;;;12.93;56.90;99646.34;5062010;28;20039;-68
2021/10/03 11:37:07;;;;;;;4.25;0.15;;;;;;;12.85;56.53;99643.44;5059765;28;20028;-69